sensor_id;sensor_type;location;lat;lon;timestamp;temperature;humidity
44886;DHT22;36669;51.428;21.162;2024-01-16T00:00:45;-1.60;99.90
44886;DHT22;36669;51.428;21.162;2024-01-16T00:03:12;-1.60;99.90
44886;DHT22;36669;51.428;21.162;2024-01-16T00:05:37;-1.60;99.90
44886;DHT22;36669;51.428;21.162;2024-01-16T00:08:03;-1.50;99.90
44886;DHT22;36669;51.428;21.162;2024-01-16T00:10:28;-1.50;99.90
44886;DHT22;36669;51.428;21.162;2024-01-16T00:12:54;-1.50;99.90
44886;DHT22;36669;51.428;21.162;2024-01-16T00:15:19;-1.40;99.90
44886;DHT22;36669;51.428;21.162;2024-01-16T00:17:45;-1.40;99.90
44886;DHT22;36669;51.428;21.162;2024-01-16T00:20:12;-1.40;99.90
44886;DHT22;36669;51.428;21.162;2024-01-16T00:22:37;-1.30;99.90
44886;DHT22;36669;51.428;21.162;2024-01-16T00:25:03;-1.30;99.90
44886;DHT22;36669;51.428;21.162;2024-01-16T00:27:29;-1.30;99.90
44886;DHT22;36669;51.428;21.162;2024-01-16T00:29:55;-1.20;99.90
44886;DHT22;36669;51.428;21.162;2024-01-16T00:32:20;-1.20;99.90
44886;DHT22;36669;51.428;21.162;2024-01-16T00:34:46;-1.30;99.90
44886;DHT22;36669;51.428;21.162;2024-01-16T00:37:11;-1.20;99.90
44886;DHT22;36669;51.428;21.162;2024-01-16T00:39:37;-1.20;99.90
44886;DHT22;36669;51.428;21.162;2024-01-16T00:42:03;-1.20;99.90
44886;DHT22;36669;51.428;21.162;2024-01-16T00:44:29;-1.20;99.90
44886;DHT22;36669;51.428;21.162;2024-01-16T00:46:54;-1.20;99.90
44886;DHT22;36669;51.428;21.162;2024-01-16T00:49:20;-1.20;99.90
44886;DHT22;36669;51.428;21.162;2024-01-16T00:51:45;-1.20;99.90
44886;DHT22;36669;51.428;21.162;2024-01-16T00:54:11;-1.20;99.90
44886;DHT22;36669;51.428;21.162;2024-01-16T00:56:37;-1.30;99.90
44886;DHT22;36669;51.428;21.162;2024-01-16T00:59:03;-1.30;99.90
44886;DHT22;36669;51.428;21.162;2024-01-16T01:01:28;-1.30;99.90
44886;DHT22;36669;51.428;21.162;2024-01-16T01:03:54;-1.30;99.90
44886;DHT22;36669;51.428;21.162;2024-01-16T01:06:20;-1.40;99.90
44886;DHT22;36669;51.428;21.162;2024-01-16T01:08:46;-1.40;99.90
44886;DHT22;36669;51.428;21.162;2024-01-16T01:11:12;-1.40;99.90
44886;DHT22;36669;51.428;21.162;2024-01-16T01:13:38;-1.40;99.90
44886;DHT22;36669;51.428;21.162;2024-01-16T01:16:04;-1.30;99.90
44886;DHT22;36669;51.428;21.162;2024-01-16T01:18:29;-1.40;99.90
44886;DHT22;36669;51.428;21.162;2024-01-16T01:20:55;-1.30;99.90
44886;DHT22;36669;51.428;21.162;2024-01-16T01:23:21;-1.40;99.90
44886;DHT22;36669;51.428;21.162;2024-01-16T01:25:46;-1.40;99.90
44886;DHT22;36669;51.428;21.162;2024-01-16T01:28:12;-1.40;99.90
44886;DHT22;36669;51.428;21.162;2024-01-16T01:30:37;-1.30;99.90
44886;DHT22;36669;51.428;21.162;2024-01-16T01:33:03;-1.30;99.90
44886;DHT22;36669;51.428;21.162;2024-01-16T01:35:29;-1.40;99.90
44886;DHT22;36669;51.428;21.162;2024-01-16T01:37:55;-1.30;99.90
44886;DHT22;36669;51.428;21.162;2024-01-16T01:40:22;-1.30;99.90
44886;DHT22;36669;51.428;21.162;2024-01-16T01:42:47;-1.30;99.90
44886;DHT22;36669;51.428;21.162;2024-01-16T01:45:13;-1.30;99.90
44886;DHT22;36669;51.428;21.162;2024-01-16T01:47:40;-1.30;99.90
44886;DHT22;36669;51.428;21.162;2024-01-16T01:50:08;-1.30;99.90
44886;DHT22;36669;51.428;21.162;2024-01-16T01:52:35;-1.30;99.90
44886;DHT22;36669;51.428;21.162;2024-01-16T01:55:02;-1.30;99.90
44886;DHT22;36669;51.428;21.162;2024-01-16T01:57:28;-1.20;99.90
44886;DHT22;36669;51.428;21.162;2024-01-16T01:59:55;-1.30;99.90
44886;DHT22;36669;51.428;21.162;2024-01-16T02:02:21;-1.30;99.90
44886;DHT22;36669;51.428;21.162;2024-01-16T02:04:47;-1.20;99.90
44886;DHT22;36669;51.428;21.162;2024-01-16T02:07:13;-1.30;99.90
44886;DHT22;36669;51.428;21.162;2024-01-16T02:09:40;-1.30;99.90
44886;DHT22;36669;51.428;21.162;2024-01-16T02:12:07;-1.30;99.90
44886;DHT22;36669;51.428;21.162;2024-01-16T02:14:32;-1.30;99.90
44886;DHT22;36669;51.428;21.162;2024-01-16T02:16:58;-1.30;99.90
44886;DHT22;36669;51.428;21.162;2024-01-16T02:19:24;-1.30;99.90
44886;DHT22;36669;51.428;21.162;2024-01-16T02:21:51;-1.40;99.90
44886;DHT22;36669;51.428;21.162;2024-01-16T02:24:19;-1.40;99.90
44886;DHT22;36669;51.428;21.162;2024-01-16T02:26:45;-1.30;99.90
44886;DHT22;36669;51.428;21.162;2024-01-16T02:29:10;-1.30;99.90
44886;DHT22;36669;51.428;21.162;2024-01-16T02:31:36;-1.40;99.90
44886;DHT22;36669;51.428;21.162;2024-01-16T02:34:02;-1.40;99.90
44886;DHT22;36669;51.428;21.162;2024-01-16T02:36:29;-1.40;99.90
44886;DHT22;36669;51.428;21.162;2024-01-16T02:38:55;-1.40;99.90
44886;DHT22;36669;51.428;21.162;2024-01-16T02:41:20;-1.40;99.90
44886;DHT22;36669;51.428;21.162;2024-01-16T02:43:46;-1.40;99.90
44886;DHT22;36669;51.428;21.162;2024-01-16T02:46:15;-1.40;99.90
44886;DHT22;36669;51.428;21.162;2024-01-16T02:48:41;-1.40;99.90
44886;DHT22;36669;51.428;21.162;2024-01-16T02:51:08;-1.40;99.90
44886;DHT22;36669;51.428;21.162;2024-01-16T02:53:33;-1.40;99.90
44886;DHT22;36669;51.428;21.162;2024-01-16T02:55:59;-1.40;99.90
44886;DHT22;36669;51.428;21.162;2024-01-16T02:58:29;-1.40;99.90
44886;DHT22;36669;51.428;21.162;2024-01-16T03:00:55;-1.50;99.90
44886;DHT22;36669;51.428;21.162;2024-01-16T03:03:20;-1.50;99.90
44886;DHT22;36669;51.428;21.162;2024-01-16T03:05:47;-1.50;99.90
44886;DHT22;36669;51.428;21.162;2024-01-16T03:08:13;-1.60;99.90
44886;DHT22;36669;51.428;21.162;2024-01-16T03:10:38;-1.60;99.90
44886;DHT22;36669;51.428;21.162;2024-01-16T03:13:04;-1.60;99.90
44886;DHT22;36669;51.428;21.162;2024-01-16T03:15:29;-1.70;99.90
44886;DHT22;36669;51.428;21.162;2024-01-16T03:17:57;-1.70;99.90
44886;DHT22;36669;51.428;21.162;2024-01-16T03:20:23;-1.70;99.90
44886;DHT22;36669;51.428;21.162;2024-01-16T03:22:49;-1.70;99.90
44886;DHT22;36669;51.428;21.162;2024-01-16T03:25:15;-1.70;99.90
44886;DHT22;36669;51.428;21.162;2024-01-16T03:27:43;-1.70;99.90
44886;DHT22;36669;51.428;21.162;2024-01-16T03:30:11;-1.70;99.90
44886;DHT22;36669;51.428;21.162;2024-01-16T03:32:38;-1.80;99.90
44886;DHT22;36669;51.428;21.162;2024-01-16T03:35:05;-1.70;99.90
44886;DHT22;36669;51.428;21.162;2024-01-16T03:37:33;-1.70;99.90
44886;DHT22;36669;51.428;21.162;2024-01-16T03:39:58;-1.70;99.90
44886;DHT22;36669;51.428;21.162;2024-01-16T03:42:24;-1.80;99.90
44886;DHT22;36669;51.428;21.162;2024-01-16T03:44:51;-1.80;99.90
44886;DHT22;36669;51.428;21.162;2024-01-16T03:47:16;-1.80;99.90
44886;DHT22;36669;51.428;21.162;2024-01-16T03:49:42;-1.80;99.90
44886;DHT22;36669;51.428;21.162;2024-01-16T03:52:08;-1.90;99.90
44886;DHT22;36669;51.428;21.162;2024-01-16T03:54:34;-1.90;99.90
44886;DHT22;36669;51.428;21.162;2024-01-16T03:56:59;-2.00;99.90
44886;DHT22;36669;51.428;21.162;2024-01-16T03:59:25;-2.00;99.90
44886;DHT22;36669;51.428;21.162;2024-01-16T04:01:50;-2.00;99.90
44886;DHT22;36669;51.428;21.162;2024-01-16T04:04:16;-2.00;99.90
44886;DHT22;36669;51.428;21.162;2024-01-16T04:06:42;-2.10;99.90
44886;DHT22;36669;51.428;21.162;2024-01-16T04:09:08;-2.10;99.90
44886;DHT22;36669;51.428;21.162;2024-01-16T04:11:35;-2.20;99.90
44886;DHT22;36669;51.428;21.162;2024-01-16T04:14:00;-2.20;99.90
44886;DHT22;36669;51.428;21.162;2024-01-16T04:16:26;-2.20;99.90
44886;DHT22;36669;51.428;21.162;2024-01-16T04:18:52;-2.20;99.90
44886;DHT22;36669;51.428;21.162;2024-01-16T04:21:17;-2.20;99.90
44886;DHT22;36669;51.428;21.162;2024-01-16T04:23:43;-2.30;99.90
44886;DHT22;36669;51.428;21.162;2024-01-16T04:26:09;-2.30;99.90
44886;DHT22;36669;51.428;21.162;2024-01-16T04:28:34;-2.40;99.90
44886;DHT22;36669;51.428;21.162;2024-01-16T04:31:02;-2.40;99.90
44886;DHT22;36669;51.428;21.162;2024-01-16T04:33:28;-2.50;99.90
44886;DHT22;36669;51.428;21.162;2024-01-16T04:35:54;-2.50;99.90
44886;DHT22;36669;51.428;21.162;2024-01-16T04:38:20;-2.50;99.90
44886;DHT22;36669;51.428;21.162;2024-01-16T04:40:46;-2.70;99.90
44886;DHT22;36669;51.428;21.162;2024-01-16T04:43:12;-2.70;99.90
44886;DHT22;36669;51.428;21.162;2024-01-16T04:45:38;-2.70;99.90
44886;DHT22;36669;51.428;21.162;2024-01-16T04:48:03;-2.80;99.90
44886;DHT22;36669;51.428;21.162;2024-01-16T04:50:29;-2.70;99.90
44886;DHT22;36669;51.428;21.162;2024-01-16T04:53:00;-2.70;99.90
44886;DHT22;36669;51.428;21.162;2024-01-16T04:55:26;-2.70;99.90
44886;DHT22;36669;51.428;21.162;2024-01-16T04:57:52;-2.70;99.90
44886;DHT22;36669;51.428;21.162;2024-01-16T05:00:18;-2.80;99.90
44886;DHT22;36669;51.428;21.162;2024-01-16T05:02:43;-2.80;99.90
44886;DHT22;36669;51.428;21.162;2024-01-16T05:05:09;-2.80;99.90
44886;DHT22;36669;51.428;21.162;2024-01-16T05:07:35;-2.80;99.90
44886;DHT22;36669;51.428;21.162;2024-01-16T05:10:02;-2.80;99.90
44886;DHT22;36669;51.428;21.162;2024-01-16T05:12:29;-2.80;99.90
44886;DHT22;36669;51.428;21.162;2024-01-16T05:14:54;-2.80;99.90
44886;DHT22;36669;51.428;21.162;2024-01-16T05:17:20;-2.90;99.90
44886;DHT22;36669;51.428;21.162;2024-01-16T05:19:45;-2.90;99.90
44886;DHT22;36669;51.428;21.162;2024-01-16T05:22:11;-2.90;99.90
44886;DHT22;36669;51.428;21.162;2024-01-16T05:24:36;-3.00;99.90
44886;DHT22;36669;51.428;21.162;2024-01-16T05:27:02;-3.00;99.90
44886;DHT22;36669;51.428;21.162;2024-01-16T05:29:30;-3.00;99.90
44886;DHT22;36669;51.428;21.162;2024-01-16T05:31:56;-3.00;99.90
44886;DHT22;36669;51.428;21.162;2024-01-16T05:34:22;-3.00;99.90
44886;DHT22;36669;51.428;21.162;2024-01-16T05:36:47;-3.10;99.90
44886;DHT22;36669;51.428;21.162;2024-01-16T05:39:13;-3.10;99.90
44886;DHT22;36669;51.428;21.162;2024-01-16T05:41:38;-3.10;99.90
44886;DHT22;36669;51.428;21.162;2024-01-16T05:44:04;-3.10;99.90
44886;DHT22;36669;51.428;21.162;2024-01-16T05:46:32;-3.10;99.90
44886;DHT22;36669;51.428;21.162;2024-01-16T05:48:58;-3.10;99.90
44886;DHT22;36669;51.428;21.162;2024-01-16T05:51:27;-3.20;99.90
44886;DHT22;36669;51.428;21.162;2024-01-16T05:53:52;-3.20;99.90
44886;DHT22;36669;51.428;21.162;2024-01-16T05:56:18;-3.20;99.90
44886;DHT22;36669;51.428;21.162;2024-01-16T05:58:43;-3.20;99.90
44886;DHT22;36669;51.428;21.162;2024-01-16T06:01:09;-3.20;99.90
44886;DHT22;36669;51.428;21.162;2024-01-16T06:03:34;-3.20;99.90
44886;DHT22;36669;51.428;21.162;2024-01-16T06:06:00;-3.20;99.90
44886;DHT22;36669;51.428;21.162;2024-01-16T06:08:25;-3.40;99.90
44886;DHT22;36669;51.428;21.162;2024-01-16T06:10:51;-3.30;99.90
44886;DHT22;36669;51.428;21.162;2024-01-16T06:13:18;-3.30;99.90
44886;DHT22;36669;51.428;21.162;2024-01-16T06:15:44;-3.30;99.90
44886;DHT22;36669;51.428;21.162;2024-01-16T06:18:09;-3.30;99.90
44886;DHT22;36669;51.428;21.162;2024-01-16T06:20:35;-3.30;99.90
44886;DHT22;36669;51.428;21.162;2024-01-16T06:23:01;-3.40;99.90
44886;DHT22;36669;51.428;21.162;2024-01-16T06:25:26;-3.40;99.90
44886;DHT22;36669;51.428;21.162;2024-01-16T06:27:52;-3.40;99.90
44886;DHT22;36669;51.428;21.162;2024-01-16T06:30:17;-3.40;99.90
44886;DHT22;36669;51.428;21.162;2024-01-16T06:32:43;-3.50;99.90
44886;DHT22;36669;51.428;21.162;2024-01-16T06:35:08;-3.50;99.90
44886;DHT22;36669;51.428;21.162;2024-01-16T06:37:36;-3.50;99.90
44886;DHT22;36669;51.428;21.162;2024-01-16T06:40:02;-3.50;99.90
44886;DHT22;36669;51.428;21.162;2024-01-16T06:42:28;-3.40;99.90
44886;DHT22;36669;51.428;21.162;2024-01-16T06:44:53;-3.50;99.90
44886;DHT22;36669;51.428;21.162;2024-01-16T06:47:19;-3.60;99.90
44886;DHT22;36669;51.428;21.162;2024-01-16T06:49:44;-3.60;99.90
44886;DHT22;36669;51.428;21.162;2024-01-16T06:52:10;-3.50;99.90
44886;DHT22;36669;51.428;21.162;2024-01-16T06:54:35;-3.50;99.90
44886;DHT22;36669;51.428;21.162;2024-01-16T06:57:01;-3.50;99.90
44886;DHT22;36669;51.428;21.162;2024-01-16T06:59:27;-3.60;99.90
44886;DHT22;36669;51.428;21.162;2024-01-16T07:01:52;-3.50;99.90
44886;DHT22;36669;51.428;21.162;2024-01-16T07:04:19;-3.60;99.90
44886;DHT22;36669;51.428;21.162;2024-01-16T07:06:45;-3.60;99.90
44886;DHT22;36669;51.428;21.162;2024-01-16T07:09:11;-3.60;99.90
44886;DHT22;36669;51.428;21.162;2024-01-16T07:11:38;-3.60;99.90
44886;DHT22;36669;51.428;21.162;2024-01-16T07:14:04;-3.70;99.90
44886;DHT22;36669;51.428;21.162;2024-01-16T07:16:29;-3.70;99.90
44886;DHT22;36669;51.428;21.162;2024-01-16T07:18:55;-3.60;99.90
44886;DHT22;36669;51.428;21.162;2024-01-16T07:21:21;-3.70;99.90
44886;DHT22;36669;51.428;21.162;2024-01-16T07:23:47;-3.60;99.90
44886;DHT22;36669;51.428;21.162;2024-01-16T07:26:13;-3.60;99.90
44886;DHT22;36669;51.428;21.162;2024-01-16T07:28:38;-3.60;99.90
44886;DHT22;36669;51.428;21.162;2024-01-16T07:31:04;-3.60;99.90
44886;DHT22;36669;51.428;21.162;2024-01-16T07:33:31;-3.50;99.90
44886;DHT22;36669;51.428;21.162;2024-01-16T07:35:57;-3.50;99.90
44886;DHT22;36669;51.428;21.162;2024-01-16T07:38:23;-3.40;99.90
44886;DHT22;36669;51.428;21.162;2024-01-16T07:40:48;-3.40;99.90
44886;DHT22;36669;51.428;21.162;2024-01-16T07:43:14;-3.40;99.90
44886;DHT22;36669;51.428;21.162;2024-01-16T07:45:39;-3.40;99.90
44886;DHT22;36669;51.428;21.162;2024-01-16T07:48:05;-3.30;99.90
44886;DHT22;36669;51.428;21.162;2024-01-16T07:50:31;-3.30;99.90
44886;DHT22;36669;51.428;21.162;2024-01-16T07:52:56;-3.30;99.90
44886;DHT22;36669;51.428;21.162;2024-01-16T07:55:22;-3.30;99.90
44886;DHT22;36669;51.428;21.162;2024-01-16T07:57:47;-3.30;99.90
44886;DHT22;36669;51.428;21.162;2024-01-16T08:00:13;-3.30;99.90
44886;DHT22;36669;51.428;21.162;2024-01-16T08:02:39;-3.30;99.90
44886;DHT22;36669;51.428;21.162;2024-01-16T08:05:07;-3.30;99.90
44886;DHT22;36669;51.428;21.162;2024-01-16T08:07:33;-3.30;99.90
44886;DHT22;36669;51.428;21.162;2024-01-16T08:10:00;-3.20;99.90
44886;DHT22;36669;51.428;21.162;2024-01-16T08:12:26;-3.20;99.90
44886;DHT22;36669;51.428;21.162;2024-01-16T08:14:51;-3.20;99.90
44886;DHT22;36669;51.428;21.162;2024-01-16T08:17:17;-3.20;99.90
44886;DHT22;36669;51.428;21.162;2024-01-16T08:19:43;-3.20;99.90
44886;DHT22;36669;51.428;21.162;2024-01-16T08:22:08;-3.10;99.90
44886;DHT22;36669;51.428;21.162;2024-01-16T08:24:34;-3.10;99.90
44886;DHT22;36669;51.428;21.162;2024-01-16T08:26:59;-3.10;99.90
44886;DHT22;36669;51.428;21.162;2024-01-16T08:29:25;-3.00;99.90
44886;DHT22;36669;51.428;21.162;2024-01-16T08:31:51;-3.00;99.90
44886;DHT22;36669;51.428;21.162;2024-01-16T08:34:19;-3.10;99.90
44886;DHT22;36669;51.428;21.162;2024-01-16T08:36:45;-3.10;99.90
44886;DHT22;36669;51.428;21.162;2024-01-16T08:39:11;-3.10;99.90
44886;DHT22;36669;51.428;21.162;2024-01-16T08:41:37;-3.10;99.90
44886;DHT22;36669;51.428;21.162;2024-01-16T08:44:02;-3.10;99.90
44886;DHT22;36669;51.428;21.162;2024-01-16T08:46:28;-3.10;99.90
44886;DHT22;36669;51.428;21.162;2024-01-16T08:48:53;-3.20;99.90
44886;DHT22;36669;51.428;21.162;2024-01-16T08:51:19;-3.20;99.90
44886;DHT22;36669;51.428;21.162;2024-01-16T08:53:45;-3.10;99.90
44886;DHT22;36669;51.428;21.162;2024-01-16T08:56:11;-3.10;99.90
44886;DHT22;36669;51.428;21.162;2024-01-16T08:58:38;-3.10;99.90
44886;DHT22;36669;51.428;21.162;2024-01-16T09:01:06;-3.20;99.90
44886;DHT22;36669;51.428;21.162;2024-01-16T09:03:33;-3.20;99.90
44886;DHT22;36669;51.428;21.162;2024-01-16T09:05:58;-3.20;99.90
44886;DHT22;36669;51.428;21.162;2024-01-16T09:08:26;-3.20;99.90
44886;DHT22;36669;51.428;21.162;2024-01-16T09:10:53;-3.20;99.90
44886;DHT22;36669;51.428;21.162;2024-01-16T09:13:18;-3.20;99.90
44886;DHT22;36669;51.428;21.162;2024-01-16T09:15:47;-3.20;99.90
44886;DHT22;36669;51.428;21.162;2024-01-16T09:18:13;-3.20;99.90
44886;DHT22;36669;51.428;21.162;2024-01-16T09:20:39;-3.10;99.90
44886;DHT22;36669;51.428;21.162;2024-01-16T09:23:04;-3.10;99.90
44886;DHT22;36669;51.428;21.162;2024-01-16T09:25:30;-3.10;99.90
44886;DHT22;36669;51.428;21.162;2024-01-16T09:27:56;-3.10;99.90
44886;DHT22;36669;51.428;21.162;2024-01-16T09:30:21;-3.00;99.90
44886;DHT22;36669;51.428;21.162;2024-01-16T09:32:48;-3.00;99.90
44886;DHT22;36669;51.428;21.162;2024-01-16T09:35:14;-3.00;99.90
44886;DHT22;36669;51.428;21.162;2024-01-16T09:37:39;-3.00;99.90
44886;DHT22;36669;51.428;21.162;2024-01-16T09:40:06;-2.90;99.90
44886;DHT22;36669;51.428;21.162;2024-01-16T09:42:32;-3.00;99.90
44886;DHT22;36669;51.428;21.162;2024-01-16T09:45:00;-2.90;99.90
44886;DHT22;36669;51.428;21.162;2024-01-16T09:47:30;-2.90;99.90
44886;DHT22;36669;51.428;21.162;2024-01-16T09:49:57;-2.90;99.90
44886;DHT22;36669;51.428;21.162;2024-01-16T09:52:24;-2.80;99.90
44886;DHT22;36669;51.428;21.162;2024-01-16T09:54:50;-2.80;99.90
44886;DHT22;36669;51.428;21.162;2024-01-16T09:57:19;-2.80;99.90
44886;DHT22;36669;51.428;21.162;2024-01-16T09:59:48;-2.80;99.90
44886;DHT22;36669;51.428;21.162;2024-01-16T10:02:14;-2.70;99.90
44886;DHT22;36669;51.428;21.162;2024-01-16T10:04:41;-2.70;99.90
44886;DHT22;36669;51.428;21.162;2024-01-16T10:07:08;-2.80;99.90
44886;DHT22;36669;51.428;21.162;2024-01-16T10:09:35;-2.80;99.90
44886;DHT22;36669;51.428;21.162;2024-01-16T10:12:01;-2.70;99.90
44886;DHT22;36669;51.428;21.162;2024-01-16T10:14:28;-2.70;99.90
44886;DHT22;36669;51.428;21.162;2024-01-16T10:16:55;-2.50;99.90
44886;DHT22;36669;51.428;21.162;2024-01-16T10:19:23;-2.50;99.90
44886;DHT22;36669;51.428;21.162;2024-01-16T10:21:49;-2.30;99.90
44886;DHT22;36669;51.428;21.162;2024-01-16T10:24:14;-2.20;99.90
44886;DHT22;36669;51.428;21.162;2024-01-16T10:26:40;-2.00;99.90
44886;DHT22;36669;51.428;21.162;2024-01-16T10:29:05;-2.20;99.90
44886;DHT22;36669;51.428;21.162;2024-01-16T10:31:31;-2.30;99.90
44886;DHT22;36669;51.428;21.162;2024-01-16T10:33:56;-2.30;99.90
44886;DHT22;36669;51.428;21.162;2024-01-16T10:36:23;-2.40;99.90
44886;DHT22;36669;51.428;21.162;2024-01-16T10:38:51;-2.40;99.90
44886;DHT22;36669;51.428;21.162;2024-01-16T10:41:23;-2.10;99.90
44886;DHT22;36669;51.428;21.162;2024-01-16T10:44:05;-1.70;99.90
44886;DHT22;36669;51.428;21.162;2024-01-16T10:46:35;-1.80;99.90
44886;DHT22;36669;51.428;21.162;2024-01-16T10:49:03;-1.80;99.90
44886;DHT22;36669;51.428;21.162;2024-01-16T10:51:30;-1.80;99.90
44886;DHT22;36669;51.428;21.162;2024-01-16T10:54:04;-1.80;99.90
44886;DHT22;36669;51.428;21.162;2024-01-16T10:56:36;-2.00;99.90
44886;DHT22;36669;51.428;21.162;2024-01-16T10:59:31;-1.80;99.90
44886;DHT22;36669;51.428;21.162;2024-01-16T11:02:02;-1.70;99.90
44886;DHT22;36669;51.428;21.162;2024-01-16T11:04:30;-1.90;99.90
44886;DHT22;36669;51.428;21.162;2024-01-16T11:06:56;-1.90;99.90
44886;DHT22;36669;51.428;21.162;2024-01-16T11:09:22;-1.70;99.90
44886;DHT22;36669;51.428;21.162;2024-01-16T11:11:50;-2.00;99.90
44886;DHT22;36669;51.428;21.162;2024-01-16T11:14:20;-1.90;99.90
44886;DHT22;36669;51.428;21.162;2024-01-16T11:16:48;-1.80;99.90
44886;DHT22;36669;51.428;21.162;2024-01-16T11:19:14;-1.70;99.90
44886;DHT22;36669;51.428;21.162;2024-01-16T11:21:42;-1.80;99.90
44886;DHT22;36669;51.428;21.162;2024-01-16T11:24:09;-1.80;99.90
44886;DHT22;36669;51.428;21.162;2024-01-16T11:26:35;-1.90;99.90
44886;DHT22;36669;51.428;21.162;2024-01-16T11:31:57;-2.20;99.90
44886;DHT22;36669;51.428;21.162;2024-01-16T11:37:10;-2.20;99.90
44886;DHT22;36669;51.428;21.162;2024-01-16T11:39:36;-2.10;99.90
44886;DHT22;36669;51.428;21.162;2024-01-16T11:42:02;-2.10;99.90
44886;DHT22;36669;51.428;21.162;2024-01-16T11:44:48;-2.00;99.90
44886;DHT22;36669;51.428;21.162;2024-01-16T11:47:23;-2.00;99.90
44886;DHT22;36669;51.428;21.162;2024-01-16T11:50:09;-1.70;99.90
44886;DHT22;36669;51.428;21.162;2024-01-16T11:52:42;-1.80;99.90
44886;DHT22;36669;51.428;21.162;2024-01-16T11:55:24;-1.90;99.90
44886;DHT22;36669;51.428;21.162;2024-01-16T12:00:47;-1.90;99.90
44886;DHT22;36669;51.428;21.162;2024-01-16T12:03:19;-1.80;99.90
44886;DHT22;36669;51.428;21.162;2024-01-16T12:05:58;-1.60;99.90
44886;DHT22;36669;51.428;21.162;2024-01-16T12:08:25;-1.50;99.90
44886;DHT22;36669;51.428;21.162;2024-01-16T12:10:51;-1.20;99.90
44886;DHT22;36669;51.428;21.162;2024-01-16T12:13:16;-0.90;99.90
44886;DHT22;36669;51.428;21.162;2024-01-16T12:15:42;-1.10;99.90
44886;DHT22;36669;51.428;21.162;2024-01-16T12:18:08;-1.30;99.90
44886;DHT22;36669;51.428;21.162;2024-01-16T12:20:36;-1.40;99.90
44886;DHT22;36669;51.428;21.162;2024-01-16T12:23:08;-1.60;99.90
44886;DHT22;36669;51.428;21.162;2024-01-16T12:25:38;-1.40;99.90
44886;DHT22;36669;51.428;21.162;2024-01-16T12:28:05;-1.60;99.90
44886;DHT22;36669;51.428;21.162;2024-01-16T12:30:36;-1.70;99.90
44886;DHT22;36669;51.428;21.162;2024-01-16T12:33:12;-1.40;99.90
44886;DHT22;36669;51.428;21.162;2024-01-16T12:35:43;-1.40;99.90
44886;DHT22;36669;51.428;21.162;2024-01-16T12:38:11;-1.50;99.90
44886;DHT22;36669;51.428;21.162;2024-01-16T12:40:39;-1.60;99.90
44886;DHT22;36669;51.428;21.162;2024-01-16T12:43:09;-1.80;99.90
44886;DHT22;36669;51.428;21.162;2024-01-16T12:45:35;-1.80;99.90
44886;DHT22;36669;51.428;21.162;2024-01-16T12:48:01;-1.60;99.90
44886;DHT22;36669;51.428;21.162;2024-01-16T12:50:30;-1.50;99.90
44886;DHT22;36669;51.428;21.162;2024-01-16T12:53:09;-1.40;99.90
44886;DHT22;36669;51.428;21.162;2024-01-16T12:55:37;-1.30;99.90
44886;DHT22;36669;51.428;21.162;2024-01-16T12:58:18;-1.40;99.90
44886;DHT22;36669;51.428;21.162;2024-01-16T13:00:49;-1.60;99.90
44886;DHT22;36669;51.428;21.162;2024-01-16T13:03:25;-1.40;99.90
44886;DHT22;36669;51.428;21.162;2024-01-16T13:06:00;-1.40;99.90
44886;DHT22;36669;51.428;21.162;2024-01-16T13:08:26;-1.50;99.90
44886;DHT22;36669;51.428;21.162;2024-01-16T13:11:04;-1.40;99.90
44886;DHT22;36669;51.428;21.162;2024-01-16T13:13:30;-1.50;99.90
44886;DHT22;36669;51.428;21.162;2024-01-16T13:15:56;-1.60;99.90
44886;DHT22;36669;51.428;21.162;2024-01-16T13:18:26;-1.90;99.90
44886;DHT22;36669;51.428;21.162;2024-01-16T13:20:53;-2.00;99.90
44886;DHT22;36669;51.428;21.162;2024-01-16T13:23:21;-2.30;99.90
44886;DHT22;36669;51.428;21.162;2024-01-16T13:25:48;-2.30;99.90
44886;DHT22;36669;51.428;21.162;2024-01-16T13:28:14;-2.40;99.90
44886;DHT22;36669;51.428;21.162;2024-01-16T13:30:41;-2.50;99.90
44886;DHT22;36669;51.428;21.162;2024-01-16T13:33:07;-2.50;99.90
44886;DHT22;36669;51.428;21.162;2024-01-16T13:35:43;-2.50;99.90
44886;DHT22;36669;51.428;21.162;2024-01-16T13:38:09;-2.60;99.90
44886;DHT22;36669;51.428;21.162;2024-01-16T13:40:36;-2.60;99.90
44886;DHT22;36669;51.428;21.162;2024-01-16T13:43:03;-2.60;99.90
44886;DHT22;36669;51.428;21.162;2024-01-16T13:45:30;-2.60;99.90
44886;DHT22;36669;51.428;21.162;2024-01-16T13:47:57;-2.60;99.90
44886;DHT22;36669;51.428;21.162;2024-01-16T13:50:23;-2.60;99.90
44886;DHT22;36669;51.428;21.162;2024-01-16T13:52:49;-2.50;99.90
44886;DHT22;36669;51.428;21.162;2024-01-16T13:55:15;-2.30;99.90
44886;DHT22;36669;51.428;21.162;2024-01-16T13:57:41;-2.10;99.90
44886;DHT22;36669;51.428;21.162;2024-01-16T14:00:08;-1.90;99.90
44886;DHT22;36669;51.428;21.162;2024-01-16T14:02:45;-1.70;99.90
44886;DHT22;36669;51.428;21.162;2024-01-16T14:05:12;-1.80;99.90
44886;DHT22;36669;51.428;21.162;2024-01-16T14:07:41;-1.80;99.90
44886;DHT22;36669;51.428;21.162;2024-01-16T14:10:09;-1.90;99.90
44886;DHT22;36669;51.428;21.162;2024-01-16T14:12:37;-1.80;99.90
44886;DHT22;36669;51.428;21.162;2024-01-16T14:15:03;-1.90;99.90
44886;DHT22;36669;51.428;21.162;2024-01-16T14:17:34;-2.10;99.90
44886;DHT22;36669;51.428;21.162;2024-01-16T14:20:00;-2.20;99.90
44886;DHT22;36669;51.428;21.162;2024-01-16T14:22:26;-2.40;99.90
44886;DHT22;36669;51.428;21.162;2024-01-16T14:24:53;-2.60;99.90
44886;DHT22;36669;51.428;21.162;2024-01-16T14:27:18;-2.70;99.90
44886;DHT22;36669;51.428;21.162;2024-01-16T14:29:44;-2.80;99.90
44886;DHT22;36669;51.428;21.162;2024-01-16T14:32:09;-3.00;99.90
44886;DHT22;36669;51.428;21.162;2024-01-16T14:34:35;-3.10;99.90
44886;DHT22;36669;51.428;21.162;2024-01-16T14:37:01;-3.20;99.90
44886;DHT22;36669;51.428;21.162;2024-01-16T14:39:26;-3.30;99.90
44886;DHT22;36669;51.428;21.162;2024-01-16T14:41:56;-3.40;99.90
44886;DHT22;36669;51.428;21.162;2024-01-16T14:44:24;-3.40;99.90
44886;DHT22;36669;51.428;21.162;2024-01-16T14:46:49;-3.50;99.90
44886;DHT22;36669;51.428;21.162;2024-01-16T14:49:15;-3.50;99.90
44886;DHT22;36669;51.428;21.162;2024-01-16T14:51:41;-3.50;99.90
44886;DHT22;36669;51.428;21.162;2024-01-16T14:54:06;-3.50;99.90
44886;DHT22;36669;51.428;21.162;2024-01-16T14:56:32;-3.60;99.90
44886;DHT22;36669;51.428;21.162;2024-01-16T14:59:00;-3.60;99.90
44886;DHT22;36669;51.428;21.162;2024-01-16T15:01:26;-3.70;99.90
44886;DHT22;36669;51.428;21.162;2024-01-16T15:03:52;-3.70;99.90
44886;DHT22;36669;51.428;21.162;2024-01-16T15:06:18;-3.70;99.90
44886;DHT22;36669;51.428;21.162;2024-01-16T15:08:44;-3.70;99.90
44886;DHT22;36669;51.428;21.162;2024-01-16T15:11:09;-3.70;99.90
44886;DHT22;36669;51.428;21.162;2024-01-16T15:13:35;-3.80;99.90
44886;DHT22;36669;51.428;21.162;2024-01-16T15:16:02;-3.70;99.90
44886;DHT22;36669;51.428;21.162;2024-01-16T15:18:28;-3.70;99.90
44886;DHT22;36669;51.428;21.162;2024-01-16T15:20:53;-3.70;99.90